Time;durP1;ratioP1;P1;durP2;ratioP2;P2;SDS_P1;SDS_P2;PMS_P1;PMS_P2;Temp;Humidity;BMP_temperature;BMP_pressure;BME280_temperature;BME280_humidity;BME280_pressure;Samples;Min_cycle;Max_cycle;Signal;HPM_P1;HPM_P2
2021/08/19 00:01:33;;;;;;;0.00;0.00;;;16.90;99.90;;;;;;5096095;27;20047;-85
2021/08/19 00:04:20;;;;;;;0.00;0.00;;;17.00;99.90;;;;;;5087886;28;20396;-82
2021/08/19 00:07:07;;;;;;;0.00;0.00;;;17.00;99.90;;;;;;5096368;28;20134;-85
2021/08/19 00:09:57;;;;;;;0.00;0.00;;;17.00;99.90;;;;;;5096255;28;20057;-82
2021/08/19 00:12:44;;;;;;;0.00;0.00;;;17.00;99.90;;;;;;5085573;28;20044;-85
2021/08/19 00:15:31;;;;;;;0.00;0.00;;;17.00;99.90;;;;;;5091826;28;20042;-84
2021/08/19 00:18:18;;;;;;;0.00;0.00;;;16.90;99.90;;;;;;5090665;28;20123;-86
2021/08/19 00:21:06;;;;;;;0.00;0.00;;;16.90;99.90;;;;;;5096352;28;20556;-84
2021/08/19 00:23:53;;;;;;;0.00;0.00;;;17.00;99.90;;;;;;5100191;28;20124;-82
2021/08/19 00:26:42;;;;;;;0.00;0.00;;;17.00;99.90;;;;;;5099070;28;20107;-84
2021/08/19 00:29:29;;;;;;;0.00;0.00;;;17.00;99.90;;;;;;5085614;28;20100;-86
2021/08/19 00:32:16;;;;;;;0.00;0.00;;;18.10;99.90;;;;;;5086287;28;20135;-84
2021/08/19 00:35:04;;;;;;;0.00;0.00;;;17.00;99.90;;;;;;5091209;28;20127;-85
2021/08/19 00:37:51;;;;;;;0.00;0.00;;;17.00;99.90;;;;;;5090554;28;20042;-85
2021/08/19 00:40:38;;;;;;;0.00;0.00;;;17.10;99.90;;;;;;5082330;28;20609;-83
2021/08/19 00:43:27;;;;;;;0.00;0.00;;;17.10;99.90;;;;;;5092445;28;20126;-84
2021/08/19 00:46:26;;;;;;;0.00;0.00;;;17.10;99.90;;;;;;5078404;28;20043;-82
2021/08/19 00:49:14;;;;;;;0.00;0.00;;;17.10;99.90;;;;;;5099281;28;20521;-83
2021/08/19 00:52:02;;;;;;;0.00;0.00;;;17.00;99.90;;;;;;5085174;28;20044;-85
2021/08/19 00:54:50;;;;;;;0.00;0.00;;;16.90;99.90;;;;;;5089621;28;20119;-86
2021/08/19 00:57:38;;;;;;;0.00;0.00;;;16.90;99.90;;;;;;5096564;28;20046;-83
2021/08/19 01:00:27;;;;;;;0.00;0.00;;;16.90;99.90;;;;;;5104012;28;20075;-81
2021/08/19 01:03:14;;;;;;;0.00;0.00;;;16.90;99.90;;;;;;5097225;28;20044;-85
2021/08/19 01:06:02;;;;;;;0.00;0.00;;;16.90;99.90;;;;;;5089503;28;20055;-84
2021/08/19 01:08:49;;;;;;;0.00;0.00;;;16.90;99.90;;;;;;5095802;28;20130;-85
2021/08/19 01:11:40;;;;;;;0.00;0.00;;;16.80;99.90;;;;;;5095526;28;20046;-85
2021/08/19 01:14:27;;;;;;;0.00;0.00;;;16.80;99.90;;;;;;5094686;28;20039;-85
2021/08/19 01:17:17;;;;;;;0.00;0.00;;;16.90;99.90;;;;;;5108832;28;20101;-83
2021/08/19 01:20:06;;;;;;;0.00;0.00;;;16.90;99.90;;;;;;5094443;28;20233;-84
2021/08/19 01:22:55;;;;;;;0.00;0.00;;;16.80;99.90;;;;;;5088374;28;20119;-85
2021/08/19 01:25:42;;;;;;;0.00;0.00;;;16.80;99.90;;;;;;5095549;28;20040;-86
2021/08/19 01:28:32;;;;;;;0.00;0.00;;;16.80;99.90;;;;;;5093696;28;20144;-85
2021/08/19 01:31:21;;;;;;;0.00;0.00;;;16.80;99.90;;;;;;5095437;28;20380;-84
2021/08/19 01:34:08;;;;;;;0.00;0.00;;;16.80;99.90;;;;;;5094537;28;20044;-81
2021/08/19 01:36:55;;;;;;;0.00;0.00;;;16.80;99.90;;;;;;5088862;28;20376;-84
2021/08/19 01:39:42;;;;;;;0.00;0.00;;;16.90;99.90;;;;;;5101385;27;20043;-85
2021/08/19 01:42:29;;;;;;;0.00;0.00;;;16.80;99.90;;;;;;5101039;28;20155;-85
2021/08/19 01:45:18;;;;;;;0.00;0.00;;;16.80;99.90;;;;;;5099658;28;20054;-85
2021/08/19 01:48:05;;;;;;;0.00;0.00;;;16.80;99.90;;;;;;5104882;28;20135;-82
2021/08/19 01:50:53;;;;;;;0.00;0.00;;;16.80;99.90;;;;;;5105536;28;20048;-85
2021/08/19 01:53:41;;;;;;;0.00;0.00;;;16.90;99.90;;;;;;5092319;28;20048;-84
2021/08/19 01:56:28;;;;;;;0.00;0.00;;;16.80;99.90;;;;;;5101025;28;20065;-84
2021/08/19 01:59:15;;;;;;;0.00;0.00;;;16.80;99.90;;;;;;5102444;27;20054;-85
2021/08/19 02:02:04;;;;;;;0.00;0.00;;;16.70;99.90;;;;;;5096787;28;20566;-81
2021/08/19 02:04:51;;;;;;;0.00;0.00;;;16.60;99.90;;;;;;5095909;27;20098;-86
2021/08/19 02:07:38;;;;;;;0.00;0.00;;;16.60;99.90;;;;;;5100417;28;20039;-82
2021/08/19 02:10:25;;;;;;;0.00;0.00;;;16.60;99.90;;;;;;5111746;28;20078;-85
2021/08/19 02:13:13;;;;;;;0.00;0.00;;;16.60;99.90;;;;;;5092878;28;20052;-85
2021/08/19 02:16:01;;;;;;;0.00;0.00;;;16.60;99.90;;;;;;5100304;28;20039;-86
2021/08/19 02:18:49;;;;;;;0.00;0.00;;;16.60;99.90;;;;;;5098800;27;20040;-85
2021/08/19 02:21:36;;;;;;;0.00;0.00;;;16.50;99.90;;;;;;5099220;27;20055;-85
2021/08/19 02:24:23;;;;;;;0.00;0.00;;;16.60;99.90;;;;;;5113766;27;20043;-82
2021/08/19 02:27:10;;;;;;;0.00;0.00;;;16.60;99.90;;;;;;5092305;27;20083;-85
2021/08/19 02:29:57;;;;;;;0.00;0.00;;;16.70;99.90;;;;;;5099825;28;20055;-85
2021/08/19 02:32:45;;;;;;;0.00;0.00;;;16.70;99.90;;;;;;5100771;28;20123;-85
2021/08/19 02:35:34;;;;;;;0.00;0.00;;;16.80;99.90;;;;;;5090306;28;20048;-81
2021/08/19 02:38:21;;;;;;;0.00;0.00;;;16.70;99.90;;;;;;5111755;28;20036;-84
2021/08/19 02:41:08;;;;;;;0.00;0.00;;;16.70;99.90;;;;;;5096377;28;20070;-82
2021/08/19 02:43:55;;;;;;;0.00;0.00;;;16.70;99.90;;;;;;5096354;27;20049;-84
2021/08/19 02:46:42;;;;;;;0.00;0.00;;;16.70;99.90;;;;;;5094096;28;20423;-81
2021/08/19 02:49:30;;;;;;;0.00;0.00;;;16.80;99.90;;;;;;5094444;28;20048;-83
2021/08/19 02:52:18;;;;;;;0.00;0.00;;;16.80;99.90;;;;;;5096949;28;20043;-84
2021/08/19 02:55:07;;;;;;;0.00;0.00;;;16.80;99.90;;;;;;5094785;28;20047;-83
2021/08/19 02:57:54;;;;;;;0.00;0.00;;;16.80;99.90;;;;;;5097000;28;20035;-84
2021/08/19 03:00:41;;;;;;;0.00;0.00;;;16.80;99.90;;;;;;5098580;28;20127;-85
2021/08/19 03:03:28;;;;;;;0.00;0.00;;;16.80;99.90;;;;;;5104506;27;20515;-85
2021/08/19 03:06:16;;;;;;;0.00;0.00;;;16.80;99.90;;;;;;5100063;28;20035;-82
2021/08/19 03:09:04;;;;;;;0.00;0.00;;;16.80;99.90;;;;;;5097897;27;20053;-85
2021/08/19 03:11:51;;;;;;;0.00;0.00;;;16.70;99.90;;;;;;5096974;28;20513;-85
2021/08/19 03:14:38;;;;;;;0.00;0.00;;;16.80;99.90;;;;;;5093019;28;20066;-84
2021/08/19 03:17:27;;;;;;;0.00;0.00;;;17.10;99.90;;;;;;5094677;28;20040;-85
2021/08/19 03:20:14;;;;;;;0.00;0.00;;;16.80;99.90;;;;;;5099061;28;20040;-85
2021/08/19 03:23:01;;;;;;;0.00;0.00;;;16.80;99.90;;;;;;5094938;28;20085;-85
2021/08/19 03:25:50;;;;;;;0.00;0.00;;;16.70;99.90;;;;;;5094683;27;20573;-85
2021/08/19 03:28:38;;;;;;;0.00;0.00;;;16.70;99.90;;;;;;5099120;28;20051;-83
2021/08/19 03:31:26;;;;;;;0.00;0.00;;;16.80;99.90;;;;;;5096683;28;20518;-83
2021/08/19 03:34:14;;;;;;;0.00;0.00;;;16.70;99.90;;;;;;5097042;27;20118;-85
2021/08/19 03:37:01;;;;;;;0.00;0.00;;;16.70;99.90;;;;;;5094717;28;20139;-85
2021/08/19 03:39:49;;;;;;;0.00;0.00;;;16.70;99.90;;;;;;5097261;28;20056;-85
2021/08/19 03:42:38;;;;;;;0.00;0.00;;;16.70;99.90;;;;;;5093753;28;20131;-83
2021/08/19 03:45:26;;;;;;;0.00;0.00;;;16.70;99.90;;;;;;5112329;27;20204;-84
2021/08/19 03:48:13;;;;;;;0.00;0.00;;;16.70;99.90;;;;;;5112161;27;20039;-80
2021/08/19 03:51:00;;;;;;;0.00;0.00;;;16.60;99.90;;;;;;5101064;28;20053;-82
2021/08/19 03:53:53;;;;;;;0.00;0.00;;;16.50;99.90;;;;;;5097755;28;20075;-85
2021/08/19 03:56:40;;;;;;;0.08;0.08;;;16.50;99.90;;;;;;5099821;28;20153;-85
2021/08/19 03:59:28;;;;;;;0.00;0.00;;;16.50;99.90;;;;;;5096009;27;20048;-81
2021/08/19 04:02:15;;;;;;;0.00;0.00;;;16.40;99.90;;;;;;5107584;28;20132;-86
2021/08/19 04:05:03;;;;;;;0.00;0.00;;;16.40;99.90;;;;;;5100169;28;20036;-83
2021/08/19 04:07:51;;;;;;;0.00;0.00;;;16.40;99.90;;;;;;5096032;28;20127;-86
2021/08/19 04:10:38;;;;;;;0.00;0.00;;;16.50;99.90;;;;;;5098281;28;20046;-84
2021/08/19 04:13:25;;;;;;;0.00;0.00;;;16.50;99.90;;;;;;5100639;28;20518;-81
2021/08/19 04:16:13;;;;;;;0.00;0.00;;;16.50;99.90;;;;;;5110745;28;20170;-85
2021/08/19 04:19:00;;;;;;;0.00;0.00;;;16.50;99.90;;;;;;5098415;28;20056;-85
2021/08/19 04:21:48;;;;;;;0.00;0.00;;;16.50;99.90;;;;;;5097621;28;20515;-83
2021/08/19 04:24:35;;;;;;;0.00;0.00;;;16.50;99.90;;;;;;5097718;28;20044;-81
2021/08/19 04:27:22;;;;;;;0.00;0.00;;;16.50;99.90;;;;;;5097667;28;20039;-85
2021/08/19 04:30:10;;;;;;;0.00;0.00;;;16.50;99.90;;;;;;5096025;28;20039;-84
2021/08/19 04:32:58;;;;;;;0.00;0.00;;;16.50;99.90;;;;;;5096511;28;20039;-86
2021/08/19 04:35:46;;;;;;;0.00;0.00;;;16.60;99.90;;;;;;5089221;28;20118;-85
2021/08/19 04:38:34;;;;;;;0.00;0.00;;;16.70;99.90;;;;;;5097585;28;20070;-81
2021/08/19 04:41:21;;;;;;;0.00;0.00;;;16.70;99.90;;;;;;5088496;28;20147;-83
2021/08/19 04:44:08;;;;;;;0.00;0.00;;;16.60;99.90;;;;;;5092819;28;20047;-85
2021/08/19 04:46:55;;;;;;;0.00;0.00;;;16.60;99.90;;;;;;5093948;28;20044;-85
2021/08/19 04:49:44;;;;;;;0.00;0.00;;;16.50;99.90;;;;;;5103870;28;20044;-86
2021/08/19 04:52:31;;;;;;;0.00;0.00;;;16.90;99.90;;;;;;5096235;28;20058;-86
2021/08/19 04:55:18;;;;;;;0.00;0.00;;;16.50;99.90;;;;;;5100810;28;20044;-84
2021/08/19 04:58:05;;;;;;;0.00;0.00;;;16.60;99.90;;;;;;5089526;28;20039;-86
2021/08/19 05:00:52;;;;;;;0.00;0.00;;;16.60;99.90;;;;;;5090540;28;20407;-85
2021/08/19 05:03:40;;;;;;;0.00;0.00;;;16.50;99.90;;;;;;5084618;28;20556;-85
2021/08/19 05:06:30;;;;;;;0.00;0.00;;;16.60;99.90;;;;;;5115009;28;20064;-85
2021/08/19 05:09:17;;;;;;;0.00;0.00;;;16.60;99.90;;;;;;5101114;28;20100;-85
2021/08/19 05:12:04;;;;;;;0.00;0.00;;;16.70;99.90;;;;;;5097395;28;20119;-86
2021/08/19 05:14:52;;;;;;;0.00;0.00;;;16.80;99.90;;;;;;5102620;28;20043;-84
2021/08/19 05:17:39;;;;;;;0.00;0.00;;;16.80;99.90;;;;;;5109357;27;20069;-81
2021/08/19 05:20:26;;;;;;;0.00;0.00;;;16.80;99.90;;;;;;5098129;28;20435;-86
2021/08/19 05:23:14;;;;;;;0.00;0.00;;;16.80;99.90;;;;;;5105501;28;20052;-82
2021/08/19 05:26:01;;;;;;;0.00;0.00;;;16.90;99.90;;;;;;5103149;28;20043;-83
2021/08/19 05:28:49;;;;;;;0.00;0.00;;;16.90;99.90;;;;;;5096430;28;20039;-87
2021/08/19 05:31:36;;;;;;;0.00;0.00;;;18.50;99.90;;;;;;5104946;28;20044;-85
2021/08/19 05:34:23;;;;;;;0.00;0.00;;;17.00;99.90;;;;;;5097564;28;20048;-86
2021/08/19 05:37:10;;;;;;;0.00;0.00;;;17.00;99.90;;;;;;5108237;27;20150;-85
2021/08/19 05:39:59;;;;;;;0.00;0.00;;;16.90;99.90;;;;;;5111847;27;20506;-84
2021/08/19 05:42:46;;;;;;;0.00;0.00;;;17.10;99.90;;;;;;5104579;28;20104;-83
2021/08/19 05:45:34;;;;;;;0.00;0.00;;;17.00;99.90;;;;;;5095001;28;20051;-85
2021/08/19 05:48:21;;;;;;;0.00;0.00;;;17.10;99.90;;;;;;5109938;27;20043;-85
2021/08/19 05:51:10;;;;;;;0.00;0.00;;;17.00;99.90;;;;;;5109743;27;20043;-86
2021/08/19 05:53:57;;;;;;;0.00;0.00;;;17.10;99.90;;;;;;5107069;28;20047;-85
2021/08/19 05:56:45;;;;;;;0.00;0.00;;;17.10;99.90;;;;;;5114583;27;20122;-83
2021/08/19 05:59:32;;;;;;;0.00;0.00;;;17.00;99.90;;;;;;5103575;28;20066;-85
2021/08/19 06:02:20;;;;;;;0.00;0.00;;;17.10;99.90;;;;;;5119245;27;20082;-84
2021/08/19 06:05:08;;;;;;;0.00;0.00;;;17.20;99.90;;;;;;5110315;28;20039;-86
2021/08/19 06:07:55;;;;;;;0.00;0.00;;;17.30;99.90;;;;;;5117872;28;20039;-86
2021/08/19 06:10:43;;;;;;;0.00;0.00;;;17.10;99.90;;;;;;5106008;27;20069;-85
2021/08/19 06:13:31;;;;;;;0.00;0.00;;;17.20;99.90;;;;;;5094510;28;20437;-85
2021/08/19 06:16:19;;;;;;;0.00;0.00;;;17.20;99.90;;;;;;5123807;27;20047;-85
2021/08/19 06:19:06;;;;;;;0.00;0.00;;;17.30;99.90;;;;;;5092967;28;20321;-87
2021/08/19 06:21:53;;;;;;;0.00;0.00;;;17.30;99.90;;;;;;5116136;27;20048;-86
2021/08/19 06:24:40;;;;;;;0.00;0.00;;;17.40;99.90;;;;;;5104395;28;20093;-86
2021/08/19 06:27:27;;;;;;;0.00;0.00;;;17.50;99.90;;;;;;5091667;28;20043;-86
2021/08/19 06:30:16;;;;;;;0.00;0.00;;;17.50;99.90;;;;;;5109266;27;20039;-86
2021/08/19 06:33:04;;;;;;;0.03;0.03;;;17.50;99.90;;;;;;5112757;27;20043;-83
2021/08/19 06:35:51;;;;;;;0.00;0.00;;;17.60;99.90;;;;;;5120930;27;20126;-82
2021/08/19 06:38:38;;;;;;;0.00;0.00;;;17.70;99.90;;;;;;5096786;28;20050;-86
2021/08/19 06:41:27;;;;;;;0.00;0.00;;;17.60;99.90;;;;;;5095028;28;20043;-83
2021/08/19 06:44:14;;;;;;;0.00;0.00;;;17.60;99.90;;;;;;5096728;27;20039;-86
2021/08/19 06:47:03;;;;;;;0.00;0.00;;;17.70;99.90;;;;;;5098416;28;20130;-86
2021/08/19 06:49:50;;;;;;;0.00;0.00;;;17.70;99.90;;;;;;5103015;28;20096;-83
2021/08/19 06:52:43;;;;;;;0.00;0.00;;;17.80;99.90;;;;;;5111992;27;20066;-85
2021/08/19 06:55:30;;;;;;;0.00;0.00;;;17.90;99.90;;;;;;5099587;27;20118;-84
2021/08/19 06:58:17;;;;;;;0.00;0.00;;;17.90;99.90;;;;;;5107388;27;20036;-82
2021/08/19 07:01:04;;;;;;;0.00;0.00;;;17.80;99.90;;;;;;5099870;28;20058;-85
2021/08/19 07:03:53;;;;;;;0.00;0.00;;;17.80;99.90;;;;;;5090845;28;20051;-83
2021/08/19 07:06:41;;;;;;;0.00;0.00;;;18.10;99.90;;;;;;5105791;27;20058;-80
2021/08/19 07:09:28;;;;;;;0.00;0.00;;;18.10;99.90;;;;;;5095395;27;20054;-86
2021/08/19 07:12:15;;;;;;;0.00;0.00;;;18.30;99.90;;;;;;5124974;27;20069;-84
2021/08/19 07:15:02;;;;;;;0.00;0.00;;;18.30;99.90;;;;;;5099829;28;20043;-85
2021/08/19 07:17:49;;;;;;;0.00;0.00;;;18.60;99.90;;;;;;5096226;28;20065;-83
2021/08/19 07:20:38;;;;;;;0.00;0.00;;;18.50;99.90;;;;;;5107740;28;20067;-85
2021/08/19 07:23:25;;;;;;;0.00;0.00;;;18.60;99.90;;;;;;5097661;27;20048;-83
2021/08/19 07:26:12;;;;;;;0.00;0.00;;;18.70;99.90;;;;;;5119308;27;20051;-85
2021/08/19 07:28:59;;;;;;;0.00;0.00;;;18.70;99.90;;;;;;5092389;28;20053;-85
2021/08/19 07:31:46;;;;;;;0.00;0.00;;;18.70;99.90;;;;;;5079759;28;20047;-85
2021/08/19 07:34:33;;;;;;;0.00;0.00;;;18.80;99.90;;;;;;5089671;27;20123;-85
2021/08/19 07:37:22;;;;;;;0.00;0.00;;;18.80;99.90;;;;;;5108106;28;20046;-85
2021/08/19 07:40:10;;;;;;;0.00;0.00;;;18.80;99.90;;;;;;5089001;28;20130;-85
2021/08/19 07:42:58;;;;;;;0.00;0.00;;;19.00;99.90;;;;;;5096867;28;20047;-87
2021/08/19 07:45:45;;;;;;;0.00;0.00;;;19.10;99.90;;;;;;5091839;28;20051;-83
2021/08/19 07:48:32;;;;;;;0.00;0.00;;;19.00;99.90;;;;;;5098801;27;20046;-86
2021/08/19 07:51:19;;;;;;;0.00;0.00;;;19.20;99.90;;;;;;5087786;28;20431;-85
2021/08/19 07:54:08;;;;;;;0.00;0.00;;;19.40;99.90;;;;;;5104830;28;20525;-86
2021/08/19 07:56:56;;;;;;;0.00;0.00;;;;;;;;;;5105778;28;20048;-81
2021/08/19 07:59:43;;;;;;;0.00;0.00;;;19.60;99.90;;;;;;5097346;28;20115;-85
2021/08/19 08:02:40;;;;;;;0.00;0.00;;;19.70;99.90;;;;;;5099653;28;20495;-84
2021/08/19 08:05:29;;;;;;;0.00;0.00;;;19.80;99.90;;;;;;5091858;28;20180;-87
2021/08/19 08:08:16;;;;;;;0.00;0.00;;;19.80;99.90;;;;;;5096287;28;20040;-86
2021/08/19 08:11:05;;;;;;;0.00;0.00;;;19.90;99.90;;;;;;5110589;27;20159;-87
2021/08/19 08:13:53;;;;;;;0.00;0.00;;;20.10;99.90;;;;;;5088271;28;20551;-82
2021/08/19 08:16:40;;;;;;;0.00;0.00;;;20.20;99.90;;;;;;5091243;28;20422;-86
2021/08/19 08:19:27;;;;;;;0.00;0.00;;;20.30;99.90;;;;;;5096977;28;20040;-83
2021/08/19 08:22:15;;;;;;;0.00;0.00;;;20.10;99.90;;;;;;5096468;28;20062;-87
2021/08/19 08:25:03;;;;;;;0.00;0.00;;;19.80;99.90;;;;;;5098379;28;20069;-83
2021/08/19 08:27:57;;;;;;;0.00;0.00;;;19.70;99.90;;;;;;5090916;28;20043;-86
2021/08/19 08:30:46;;;;;;;0.00;0.00;;;19.90;99.90;;;;;;5085909;28;20558;-85
2021/08/19 08:33:33;;;;;;;0.00;0.00;;;20.20;99.90;;;;;;5095894;28;20436;-86
2021/08/19 08:36:22;;;;;;;0.00;0.00;;;20.30;99.90;;;;;;5094778;28;20077;-86
2021/08/19 08:39:10;;;;;;;0.00;0.00;;;20.50;99.90;;;;;;5101494;28;20050;-86
2021/08/19 08:41:57;;;;;;;0.00;0.00;;;20.70;99.90;;;;;;5094856;27;20039;-86
2021/08/19 08:44:46;;;;;;;0.00;0.00;;;21.50;99.90;;;;;;5096858;28;20050;-83
2021/08/19 08:47:34;;;;;;;0.00;0.00;;;20.50;99.90;;;;;;5122363;27;20410;-83
2021/08/19 08:50:21;;;;;;;0.00;0.00;;;20.30;99.90;;;;;;5088882;28;20044;-83
2021/08/19 08:53:10;;;;;;;0.00;0.00;;;20.20;99.90;;;;;;5092294;28;20474;-86
2021/08/19 08:55:57;;;;;;;0.00;0.00;;;20.10;99.90;;;;;;5107209;28;20053;-84
2021/08/19 08:58:44;;;;;;;0.00;0.00;;;20.20;99.90;;;;;;5095048;28;20040;-82
2021/08/19 09:01:32;;;;;;;0.00;0.00;;;20.30;99.90;;;;;;5099736;28;20048;-85
2021/08/19 09:04:20;;;;;;;0.00;0.00;;;20.00;99.90;;;;;;5098537;28;20438;-85
2021/08/19 09:07:08;;;;;;;0.00;0.00;;;19.80;99.90;;;;;;5096192;28;20562;-85
2021/08/19 09:09:55;;;;;;;0.00;0.00;;;19.60;99.90;;;;;;5104526;28;20054;-86
2021/08/19 09:12:42;;;;;;;0.00;0.00;;;19.60;99.90;;;;;;5095850;28;20047;-85
2021/08/19 09:15:31;;;;;;;0.00;0.00;;;19.60;99.90;;;;;;5094156;28;20043;-86
2021/08/19 09:18:31;;;;;;;0.00;0.00;;;19.70;99.90;;;;;;5102122;28;20101;-85
2021/08/19 09:21:21;;;;;;;0.00;0.00;;;19.70;99.90;;;;;;5099845;28;20046;-84
2021/08/19 09:24:11;;;;;;;;;;;19.60;99.90;;;;;;5098887;28;20051;-83
2021/08/19 09:27:09;;;;;;;0.00;0.00;;;19.50;99.90;;;;;;5106951;28;19919;-84
2021/08/19 09:29:58;;;;;;;0.00;0.00;;;19.50;99.90;;;;;;5099982;28;20047;-83
2021/08/19 09:32:45;;;;;;;0.00;0.00;;;19.60;99.90;;;;;;5089121;28;20481;-85
2021/08/19 09:35:34;;;;;;;0.00;0.00;;;19.80;99.90;;;;;;5091890;28;20052;-85
2021/08/19 09:38:24;;;;;;;0.00;0.00;;;19.80;99.90;;;;;;5096562;28;20032;-86
2021/08/19 09:41:12;;;;;;;0.00;0.00;;;19.90;99.90;;;;;;5101242;28;20047;-85
2021/08/19 09:43:59;;;;;;;0.00;0.00;;;20.10;99.90;;;;;;5098618;28;20547;-85
2021/08/19 09:46:47;;;;;;;0.00;0.00;;;20.40;99.90;;;;;;5096366;28;20582;-87
2021/08/19 09:49:37;;;;;;;0.00;0.00;;;20.60;99.90;;;;;;5100260;28;20040;-86
2021/08/19 09:52:25;;;;;;;0.00;0.00;;;20.90;99.90;;;;;;5097122;28;20090;-86
2021/08/19 09:55:23;;;;;;;0.00;0.00;;;21.10;99.90;;;;;;5094133;28;20139;-87
2021/08/19 09:58:26;;;;;;;0.00;0.00;;;21.30;99.90;;;;;;5092997;28;20605;-82
2021/08/19 10:01:14;;;;;;;0.00;0.00;;;21.50;99.90;;;;;;5098372;28;20054;-86
2021/08/19 10:04:01;;;;;;;0.00;0.00;;;21.70;99.90;;;;;;5109576;28;20537;-86
2021/08/19 10:06:49;;;;;;;0.00;0.00;;;21.70;99.90;;;;;;5097873;28;20047;-84
2021/08/19 10:09:37;;;;;;;0.00;0.00;;;21.70;99.90;;;;;;5102806;28;20510;-84
2021/08/19 10:12:24;;;;;;;0.00;0.00;;;21.50;99.90;;;;;;5098412;28;20040;-85
2021/08/19 10:15:12;;;;;;;0.00;0.00;;;21.10;99.90;;;;;;5113757;28;20058;-85
2021/08/19 10:18:00;;;;;;;0.00;0.00;;;20.90;99.90;;;;;;5103929;28;20058;-86
2021/08/19 10:20:54;;;;;;;0.00;0.00;;;20.90;99.90;;;;;;5099898;28;20060;-86
2021/08/19 10:23:45;;;;;;;0.00;0.00;;;20.50;99.90;;;;;;5109361;27;20126;-86
2021/08/19 10:26:34;;;;;;;0.00;0.00;;;20.40;99.90;;;;;;5105311;28;20180;-85
2021/08/19 10:29:40;;;;;;;0.00;0.00;;;20.30;99.90;;;;;;5098605;28;20032;-86
2021/08/19 10:32:29;;;;;;;0.00;0.00;;;20.20;99.90;;;;;;5089358;28;20518;-86
2021/08/19 10:35:25;;;;;;;0.00;0.00;;;20.30;99.90;;;;;;5084970;28;20050;-86
2021/08/19 10:38:24;;;;;;;0.00;0.00;;;20.30;99.90;;;;;;5111698;27;20066;-86
2021/08/19 10:41:42;;;;;;;0.00;0.00;;;20.10;99.90;;;;;;5107726;27;20117;-83
2021/08/19 10:44:49;;;;;;;0.00;0.00;;;20.00;99.90;;;;;;5104520;28;20059;-86
2021/08/19 10:47:39;;;;;;;0.00;0.00;;;19.90;99.90;;;;;;5099147;28;20051;-86
2021/08/19 10:50:29;;;;;;;0.00;0.00;;;20.00;99.90;;;;;;5092130;28;20122;-84
2021/08/19 10:53:18;;;;;;;0.00;0.00;;;20.00;99.90;;;;;;5109055;28;20047;-86
2021/08/19 10:56:05;;;;;;;0.00;0.00;;;20.10;99.90;;;;;;5094317;28;20075;-85
2021/08/19 10:58:53;;;;;;;0.00;0.00;;;20.10;99.90;;;;;;5076970;28;20044;-85
2021/08/19 11:01:50;;;;;;;0.00;0.00;;;20.10;99.90;;;;;;5088210;28;20317;-85
2021/08/19 11:04:43;;;;;;;0.00;0.00;;;20.10;99.90;;;;;;5095064;28;20040;-85
2021/08/19 11:07:47;;;;;;;0.00;0.00;;;20.20;99.90;;;;;;5097045;28;20047;-84
2021/08/19 11:10:36;;;;;;;0.00;0.00;;;20.30;99.90;;;;;;5095593;28;20044;-83
2021/08/19 11:13:27;;;;;;;0.00;0.00;;;20.50;99.90;;;;;;5092176;28;20176;-86
2021/08/19 11:16:16;;;;;;;0.00;0.00;;;20.50;99.90;;;;;;5092426;28;20049;-83
2021/08/19 11:19:11;;;;;;;0.00;0.00;;;20.10;99.90;;;;;;5087984;28;20520;-81
2021/08/19 11:22:01;;;;;;;0.00;0.00;;;20.00;99.90;;;;;;5097414;28;20050;-84
2021/08/19 11:24:48;;;;;;;;;;;19.80;99.90;;;;;;5094854;28;20047;-86
2021/08/19 11:27:35;;;;;;;0.00;0.00;;;19.80;99.90;;;;;;5085082;28;19919;-85
2021/08/19 11:30:32;;;;;;;0.00;0.00;;;19.90;99.90;;;;;;5090234;28;20043;-87
2021/08/19 11:33:22;;;;;;;0.00;0.00;;;20.00;99.90;;;;;;5094641;28;20050;-82
2021/08/19 11:36:10;;;;;;;0.00;0.00;;;20.40;99.90;;;;;;5100370;28;20120;-84
2021/08/19 11:38:58;;;;;;;0.00;0.00;;;20.50;99.90;;;;;;5099581;27;20418;-86
2021/08/19 11:41:55;;;;;;;0.00;0.00;;;20.60;99.90;;;;;;5097238;28;20044;-86
2021/08/19 11:44:42;;;;;;;0.00;0.00;;;20.90;99.90;;;;;;5106182;27;20051;-86
2021/08/19 11:47:29;;;;;;;0.00;0.00;;;21.30;99.90;;;;;;5091502;28;20130;-85
2021/08/19 11:50:21;;;;;;;0.00;0.00;;;21.60;99.90;;;;;;5093422;28;20043;-85
2021/08/19 11:53:09;;;;;;;0.00;0.00;;;21.80;99.90;;;;;;5093016;28;20524;-84
2021/08/19 11:56:12;;;;;;;0.00;0.00;;;22.00;99.90;;;;;;5091038;28;20126;-86
2021/08/19 11:59:01;;;;;;;0.00;0.00;;;22.10;99.90;;;;;;5110181;27;20121;-85
2021/08/19 12:01:50;;;;;;;0.00;0.00;;;22.10;99.90;;;;;;5083633;28;20044;-86
2021/08/19 12:04:37;;;;;;;0.00;0.00;;;22.00;99.90;;;;;;5098607;28;20126;-82
2021/08/19 12:07:26;;;;;;;0.00;0.00;;;21.70;99.90;;;;;;5084884;28;20043;-82
2021/08/19 12:10:13;;;;;;;0.00;0.00;;;21.20;99.90;;;;;;5079206;28;20119;-80
2021/08/19 12:13:00;;;;;;;0.00;0.00;;;21.10;99.90;;;;;;5085786;28;20094;-81
2021/08/19 12:15:48;;;;;;;0.00;0.00;;;20.80;99.90;;;;;;5086121;28;20201;-84
2021/08/19 12:18:35;;;;;;;0.00;0.00;;;20.80;99.90;;;;;;5097319;28;20522;-86
2021/08/19 12:21:22;;;;;;;0.00;0.00;;;20.80;99.90;;;;;;5095063;28;20557;-85
2021/08/19 12:24:18;;;;;;;0.00;0.00;;;20.70;99.90;;;;;;5091809;28;20048;-86
2021/08/19 12:27:07;;;;;;;0.00;0.00;;;21.00;99.90;;;;;;5088486;28;20569;-86
2021/08/19 12:29:57;;;;;;;0.00;0.00;;;21.30;99.90;;;;;;5088687;28;20039;-86
2021/08/19 12:32:59;;;;;;;0.00;0.00;;;21.70;99.90;;;;;;5108380;27;20070;-86
2021/08/19 12:35:46;;;;;;;0.00;0.00;;;21.90;99.90;;;;;;5098092;28;20039;-86
2021/08/19 12:38:34;;;;;;;0.00;0.00;;;22.50;99.90;;;;;;5094267;28;20042;-82
2021/08/19 12:41:24;;;;;;;0.00;0.00;;;22.80;99.90;;;;;;5088863;28;20044;-86
2021/08/19 12:44:15;;;;;;;0.00;0.00;;;22.70;99.90;;;;;;5104428;27;20452;-86
2021/08/19 12:47:02;;;;;;;0.00;0.00;;;22.50;99.90;;;;;;5109142;27;20051;-86
2021/08/19 12:49:57;;;;;;;0.00;0.00;;;22.20;99.90;;;;;;5102476;28;20566;-81
2021/08/19 12:52:46;;;;;;;0.00;0.00;;;22.10;99.90;;;;;;5090123;28;20058;-86
2021/08/19 12:55:34;;;;;;;0.00;0.00;;;22.00;99.90;;;;;;5106058;28;20054;-81
2021/08/19 12:58:30;;;;;;;0.00;0.00;;;22.20;99.90;;;;;;5086180;28;20065;-82
2021/08/19 13:01:17;;;;;;;0.00;0.00;;;22.20;99.90;;;;;;5092869;28;20061;-87
2021/08/19 13:04:05;;;;;;;0.00;0.00;;;22.30;99.90;;;;;;5088413;28;20422;-86
2021/08/19 13:06:52;;;;;;;0.00;0.00;;;22.00;99.90;;;;;;5093698;28;20060;-84
2021/08/19 13:09:39;;;;;;;0.00;0.00;;;21.50;99.90;;;;;;5079145;28;20089;-86
2021/08/19 13:12:27;;;;;;;0.00;0.00;;;21.10;99.90;;;;;;5078165;28;20049;-86
2021/08/19 13:15:16;;;;;;;0.00;0.00;;;21.20;99.90;;;;;;5093882;28;20055;-86
2021/08/19 13:18:03;;;;;;;0.00;0.00;;;20.60;99.90;;;;;;5086539;28;20059;-85
2021/08/19 13:20:50;;;;;;;0.00;0.00;;;20.80;99.90;;;;;;5100423;28;20095;-85
2021/08/19 13:23:37;;;;;;;0.00;0.00;;;21.10;99.90;;;;;;5083703;28;20054;-86
2021/08/19 13:26:25;;;;;;;0.00;0.00;;;21.00;99.90;;;;;;5083138;28;20048;-85
2021/08/19 13:29:12;;;;;;;0.00;0.00;;;21.10;99.90;;;;;;5080011;28;20040;-85
2021/08/19 13:32:00;;;;;;;0.00;0.00;;;21.30;99.90;;;;;;5091362;28;20050;-85
2021/08/19 13:34:53;;;;;;;0.00;0.00;;;21.60;99.90;;;;;;5104027;28;20040;-85
2021/08/19 13:37:42;;;;;;;0.00;0.00;;;21.60;99.90;;;;;;5092912;28;20180;-85
2021/08/19 13:40:29;;;;;;;0.00;0.00;;;21.40;99.90;;;;;;5094292;28;20071;-85
2021/08/19 13:43:16;;;;;;;0.00;0.00;;;21.50;99.90;;;;;;5084033;28;20039;-87
2021/08/19 13:46:05;;;;;;;0.00;0.00;;;21.60;99.90;;;;;;5091810;28;20040;-85
2021/08/19 13:48:53;;;;;;;0.00;0.00;;;21.50;99.90;;;;;;5095248;28;20351;-86
2021/08/19 13:51:40;;;;;;;0.00;0.00;;;21.30;99.90;;;;;;5093280;28;20088;-84
2021/08/19 13:54:27;;;;;;;0.00;0.00;;;21.40;99.90;;;;;;5090235;27;20053;-83
2021/08/19 13:57:15;;;;;;;0.00;0.00;;;21.10;99.90;;;;;;5105814;28;20051;-85
2021/08/19 14:00:02;;;;;;;0.00;0.00;;;21.20;99.90;;;;;;5097676;28;20044;-85
2021/08/19 14:02:51;;;;;;;0.00;0.00;;;21.30;99.90;;;;;;5097283;28;20044;-85
2021/08/19 14:05:41;;;;;;;0.00;0.00;;;21.30;99.90;;;;;;5111543;28;20040;-85
2021/08/19 14:08:28;;;;;;;0.00;0.00;;;21.40;99.90;;;;;;5084295;28;20047;-86
2021/08/19 14:11:15;;;;;;;0.00;0.00;;;21.70;99.90;;;;;;5096024;27;20530;-86
2021/08/19 14:14:03;;;;;;;0.00;0.00;;;21.80;99.90;;;;;;5083723;28;20110;-84
2021/08/19 14:16:50;;;;;;;0.00;0.00;;;22.00;99.90;;;;;;5106520;27;20039;-83
2021/08/19 14:19:38;;;;;;;0.00;0.00;;;21.80;99.90;;;;;;5073668;28;20170;-86
2021/08/19 14:22:26;;;;;;;0.00;0.00;;;21.70;99.90;;;;;;5089939;28;20055;-82
2021/08/19 14:25:13;;;;;;;0.00;0.00;;;21.50;99.90;;;;;;5088908;28;20097;-83
2021/08/19 14:28:00;;;;;;;0.00;0.00;;;21.10;99.90;;;;;;5088078;28;20494;-85
2021/08/19 14:30:48;;;;;;;0.00;0.00;;;20.70;99.90;;;;;;5088150;28;20047;-85
2021/08/19 14:33:35;;;;;;;0.00;0.00;;;20.50;99.90;;;;;;5078806;28;20521;-86
2021/08/19 14:36:22;;;;;;;0.00;0.00;;;20.40;99.90;;;;;;5088122;28;20032;-84
2021/08/19 14:39:11;;;;;;;0.00;0.00;;;20.10;99.90;;;;;;5090279;28;20096;-85